createdAt,value
2017-12-10T00:00:06.543Z,986.80
2017-12-10T00:01:06.535Z,986.79
2017-12-10T00:02:06.529Z,986.79
2017-12-10T00:03:06.520Z,986.83
2017-12-10T00:04:06.514Z,986.82
2017-12-10T00:05:06.510Z,986.75
2017-12-10T00:06:06.496Z,986.74
2017-12-10T00:07:06.489Z,986.70
2017-12-10T00:08:06.481Z,986.68
2017-12-10T00:09:06.473Z,986.65
2017-12-10T00:10:06.469Z,986.65
2017-12-10T00:11:06.457Z,986.60
2017-12-10T00:12:06.450Z,986.61
2017-12-10T00:13:06.443Z,986.62
2017-12-10T00:14:06.435Z,986.64
2017-12-10T00:15:06.426Z,986.59
2017-12-10T00:16:06.419Z,986.55
2017-12-10T00:17:06.411Z,986.56
2017-12-10T00:18:06.404Z,986.50
2017-12-10T00:19:06.396Z,986.50
2017-12-10T00:20:06.387Z,986.55
2017-12-10T00:21:06.379Z,986.47
2017-12-10T00:22:06.371Z,986.50
2017-12-10T00:23:06.365Z,986.47
2017-12-10T00:24:06.354Z,986.44
2017-12-10T00:25:06.350Z,986.44
2017-12-10T00:26:06.340Z,986.45
2017-12-10T00:27:06.334Z,986.45
2017-12-10T00:28:06.325Z,986.41
2017-12-10T00:29:06.320Z,986.41
2017-12-10T00:30:06.310Z,986.39
2017-12-10T00:31:06.301Z,986.36
2017-12-10T00:32:06.294Z,986.40
2017-12-10T00:33:06.286Z,986.37
2017-12-10T00:34:06.278Z,986.40
2017-12-10T00:35:06.271Z,986.32
2017-12-10T00:36:06.266Z,986.34
2017-12-10T00:37:06.255Z,986.31
2017-12-10T00:38:06.248Z,986.32
2017-12-10T00:39:06.239Z,986.31
2017-12-10T00:40:06.231Z,986.29
2017-12-10T00:41:06.223Z,986.28
2017-12-10T00:42:06.217Z,986.25
2017-12-10T00:43:06.208Z,986.23
2017-12-10T00:44:06.203Z,986.20
2017-12-10T00:45:06.194Z,986.21
2017-12-10T00:46:06.186Z,986.19
2017-12-10T00:47:06.185Z,986.11
2017-12-10T00:48:06.171Z,986.11
2017-12-10T00:49:06.160Z,986.10
2017-12-10T00:50:06.154Z,986.08
2017-12-10T00:51:06.146Z,986.09
2017-12-10T00:52:06.137Z,986.04
2017-12-10T00:53:06.129Z,986.03
2017-12-10T00:54:06.122Z,986.01
2017-12-10T00:55:06.114Z,985.96
2017-12-10T00:56:06.134Z,985.96
2017-12-10T00:57:06.114Z,985.93
2017-12-10T00:58:06.105Z,985.85
2017-12-10T00:59:06.106Z,985.80
2017-12-10T01:00:06.080Z,985.76
2017-12-10T01:01:06.068Z,985.71
2017-12-10T01:02:06.061Z,985.67
2017-12-10T01:03:06.058Z,985.60
2017-12-10T01:04:06.044Z,985.61
2017-12-10T01:05:06.036Z,985.59
2017-12-10T01:06:06.030Z,985.57
2017-12-10T01:07:06.019Z,985.53
2017-12-10T01:08:06.014Z,985.52
2017-12-10T01:09:06.005Z,985.50
2017-12-10T01:10:05.998Z,985.47
2017-12-10T01:11:05.988Z,985.38
2017-12-10T01:12:05.981Z,985.39
2017-12-10T01:13:05.974Z,985.41
2017-12-10T01:14:05.967Z,985.42
2017-12-10T01:15:05.957Z,985.35
2017-12-10T01:16:05.951Z,985.36
2017-12-10T01:17:05.943Z,985.32
2017-12-10T01:18:05.935Z,985.30
2017-12-10T01:19:05.927Z,985.30
2017-12-10T01:20:05.919Z,985.29
2017-12-10T01:21:05.910Z,985.30
2017-12-10T01:22:05.904Z,985.22
2017-12-10T01:23:05.895Z,985.26
2017-12-10T01:24:05.886Z,985.19
2017-12-10T01:25:05.879Z,985.19
2017-12-10T01:26:05.873Z,985.22
2017-12-10T01:27:05.863Z,985.14
2017-12-10T01:28:05.857Z,985.09
2017-12-10T01:29:05.849Z,985.00
2017-12-10T01:30:05.842Z,985.09
2017-12-10T01:31:05.834Z,985.03
2017-12-10T01:32:05.825Z,985.06
2017-12-10T01:33:05.817Z,985.01
2017-12-10T01:34:05.810Z,984.97
2017-12-10T01:35:05.801Z,984.93
2017-12-10T01:36:05.794Z,984.93
2017-12-10T01:37:05.787Z,984.95
2017-12-10T01:38:05.782Z,984.95
2017-12-10T01:39:05.771Z,984.88
2017-12-10T01:40:05.761Z,984.85
2017-12-10T01:41:05.761Z,984.90
2017-12-10T01:42:05.748Z,984.85
2017-12-10T01:43:05.739Z,984.82
2017-12-10T01:44:05.731Z,984.90
2017-12-10T01:45:05.723Z,984.85
2017-12-10T01:46:05.715Z,984.90
2017-12-10T01:47:05.705Z,984.87
2017-12-10T01:48:05.699Z,984.82
2017-12-10T01:49:05.692Z,984.81
2017-12-10T01:50:05.685Z,984.75
2017-12-10T01:51:05.677Z,984.72
2017-12-10T01:52:05.667Z,984.69
2017-12-10T01:53:05.661Z,984.67
2017-12-10T01:54:05.652Z,984.68
2017-12-10T01:55:05.647Z,984.63
2017-12-10T01:56:05.637Z,984.61
2017-12-10T01:57:05.630Z,984.59
2017-12-10T01:58:05.622Z,984.54
2017-12-10T01:59:05.612Z,984.54
2017-12-10T02:00:05.605Z,984.49
2017-12-10T02:01:05.597Z,984.47
2017-12-10T02:02:05.596Z,984.43
2017-12-10T02:03:05.584Z,984.44
2017-12-10T02:04:05.574Z,984.41
2017-12-10T02:05:05.566Z,984.41
2017-12-10T02:06:05.558Z,984.41
2017-12-10T02:07:05.551Z,984.35
2017-12-10T02:08:05.543Z,984.37
2017-12-10T02:09:05.535Z,984.33
2017-12-10T02:10:05.528Z,984.25
2017-12-10T02:11:05.518Z,984.23
2017-12-10T02:12:05.510Z,984.21
2017-12-10T02:13:05.504Z,984.17
2017-12-10T02:14:05.497Z,984.12
2017-12-10T02:15:05.487Z,984.05
2017-12-10T02:16:05.480Z,984.09
2017-12-10T02:17:05.475Z,983.99
2017-12-10T02:18:05.466Z,984.02
2017-12-10T02:19:05.455Z,983.97
2017-12-10T02:20:05.448Z,983.97
2017-12-10T02:21:05.441Z,983.94
2017-12-10T02:22:05.433Z,983.91
2017-12-10T02:23:05.425Z,983.93
2017-12-10T02:24:05.419Z,983.92
2017-12-10T02:25:05.404Z,983.86
2017-12-10T02:26:05.400Z,983.85
2017-12-10T02:27:05.394Z,983.81
2017-12-10T02:28:05.386Z,983.80
2017-12-10T02:29:05.378Z,983.78
2017-12-10T02:30:05.371Z,983.77
2017-12-10T02:31:05.362Z,983.71
2017-12-10T02:32:05.355Z,983.70
2017-12-10T02:33:05.347Z,983.60
2017-12-10T02:34:05.340Z,983.61
2017-12-10T02:35:05.330Z,983.65
2017-12-10T02:36:05.329Z,983.54
2017-12-10T02:37:05.314Z,983.56
2017-12-10T02:38:05.310Z,983.56
2017-12-10T02:39:05.300Z,983.57
2017-12-10T02:40:05.293Z,983.55
2017-12-10T02:41:05.285Z,983.52
2017-12-10T02:42:05.276Z,983.48
2017-12-10T02:43:05.268Z,983.44
2017-12-10T02:44:05.261Z,983.43
2017-12-10T02:45:05.255Z,983.47
2017-12-10T02:46:05.247Z,983.46
2017-12-10T02:47:05.236Z,983.45
2017-12-10T02:48:05.228Z,983.48
2017-12-10T02:49:05.220Z,983.40
2017-12-10T02:50:05.213Z,983.39
2017-12-10T02:51:05.206Z,983.39
2017-12-10T02:52:05.199Z,983.35
2017-12-10T02:53:05.193Z,983.33
2017-12-10T02:54:05.183Z,983.27
2017-12-10T02:55:05.173Z,983.25
2017-12-10T02:56:05.166Z,983.14
2017-12-10T02:57:05.158Z,983.22
2017-12-10T02:58:05.151Z,983.16
2017-12-10T02:59:05.142Z,983.20
2017-12-10T03:00:05.136Z,983.14
2017-12-10T03:01:05.126Z,983.10
2017-12-10T03:02:05.117Z,983.05
2017-12-10T03:03:05.111Z,983.01
2017-12-10T03:04:05.104Z,982.97
2017-12-10T03:05:05.094Z,982.91
2017-12-10T03:06:05.087Z,982.88
2017-12-10T03:07:05.078Z,982.89
2017-12-10T03:08:05.072Z,982.83
2017-12-10T03:09:05.064Z,982.87
2017-12-10T03:10:05.054Z,982.77
2017-12-10T03:11:05.048Z,982.72
2017-12-10T03:12:05.038Z,982.75
2017-12-10T03:13:05.032Z,982.73
2017-12-10T03:14:05.024Z,982.70
2017-12-10T03:15:05.017Z,982.63
2017-12-10T03:16:05.005Z,982.56
2017-12-10T03:17:04.999Z,982.54
2017-12-10T03:18:04.992Z,982.50
2017-12-10T03:19:04.983Z,982.54
2017-12-10T03:20:04.976Z,982.48
2017-12-10T03:21:04.967Z,982.55
2017-12-10T03:22:04.968Z,982.49
2017-12-10T03:23:04.952Z,982.46
2017-12-10T03:24:04.944Z,982.45
2017-12-10T03:25:04.935Z,982.40
2017-12-10T03:26:04.930Z,982.41
2017-12-10T03:27:04.946Z,982.36
2017-12-10T03:28:04.911Z,982.36
2017-12-10T03:29:04.912Z,982.43
2017-12-10T03:30:04.897Z,982.36
2017-12-10T03:31:04.889Z,982.32
2017-12-10T03:32:04.880Z,982.30
2017-12-10T03:33:04.873Z,982.36
2017-12-10T03:34:04.873Z,982.29
2017-12-10T03:35:04.857Z,982.24
2017-12-10T03:36:04.850Z,982.22
2017-12-10T03:37:04.843Z,982.24
2017-12-10T03:38:04.832Z,982.22
2017-12-10T03:39:04.824Z,982.21
2017-12-10T03:40:04.817Z,982.22
2017-12-10T03:41:04.809Z,982.27
2017-12-10T03:42:04.802Z,982.28
2017-12-10T03:43:04.792Z,982.29
2017-12-10T03:44:04.786Z,982.22
2017-12-10T03:45:04.779Z,982.20
2017-12-10T03:46:04.770Z,982.17
2017-12-10T03:47:04.763Z,982.20
2017-12-10T03:48:04.754Z,982.11
2017-12-10T03:49:04.746Z,982.14
2017-12-10T03:50:04.739Z,982.08
2017-12-10T03:51:04.729Z,982.13
2017-12-10T03:52:04.722Z,982.11
2017-12-10T03:53:04.715Z,982.01
2017-12-10T03:54:04.706Z,981.94
2017-12-10T03:55:04.698Z,981.93
2017-12-10T03:56:04.690Z,981.96
2017-12-10T03:57:04.682Z,981.91
2017-12-10T03:58:04.674Z,981.90
2017-12-10T03:59:04.661Z,981.83
2017-12-10T04:00:04.659Z,981.86
2017-12-10T04:01:04.651Z,981.77
2017-12-10T04:02:04.644Z,981.70
2017-12-10T04:03:04.633Z,981.64
2017-12-10T04:04:04.626Z,981.61
2017-12-10T04:05:04.619Z,981.58
2017-12-10T04:06:04.616Z,981.59
2017-12-10T04:07:04.603Z,981.49
2017-12-10T04:08:04.601Z,981.43
2017-12-10T04:09:04.611Z,981.42
2017-12-10T04:10:04.582Z,981.40
2017-12-10T04:11:04.571Z,981.35
2017-12-10T04:12:04.563Z,981.39
2017-12-10T04:13:04.583Z,981.42
2017-12-10T04:14:04.551Z,981.36
2017-12-10T04:15:04.540Z,981.33
2017-12-10T04:16:04.533Z,981.39
2017-12-10T04:17:04.526Z,981.34
2017-12-10T04:18:04.517Z,981.36
2017-12-10T04:19:04.511Z,981.36
2017-12-10T04:20:04.503Z,981.30
2017-12-10T04:21:04.495Z,981.36
2017-12-10T04:22:04.487Z,981.38
2017-12-10T04:23:04.478Z,981.44
2017-12-10T04:24:04.472Z,981.46
2017-12-10T04:25:04.464Z,981.39
2017-12-10T04:26:04.457Z,981.33
2017-12-10T04:27:04.447Z,981.33
2017-12-10T04:28:04.484Z,981.30
2017-12-10T04:29:04.434Z,981.31
2017-12-10T04:30:04.426Z,981.32
2017-12-10T04:31:04.418Z,981.29
2017-12-10T04:32:04.413Z,981.26
2017-12-10T04:33:04.404Z,981.27
2017-12-10T04:34:04.394Z,981.22
2017-12-10T04:35:04.387Z,981.20
2017-12-10T04:36:04.379Z,981.16
2017-12-10T04:37:04.372Z,981.13
2017-12-10T04:38:04.364Z,981.16
2017-12-10T04:39:04.356Z,981.08
2017-12-10T04:40:04.350Z,981.10
2017-12-10T04:41:04.342Z,981.07
2017-12-10T04:42:04.333Z,981.06
2017-12-10T04:43:04.326Z,981.05
2017-12-10T04:44:04.319Z,981.05
2017-12-10T04:45:04.311Z,981.04
2017-12-10T04:46:04.304Z,981.08
2017-12-10T04:47:04.297Z,981.08
2017-12-10T04:48:04.290Z,981.10
2017-12-10T04:49:04.281Z,981.05
2017-12-10T04:50:04.272Z,981.02
2017-12-10T04:51:04.264Z,980.96
2017-12-10T04:52:04.259Z,981.02
2017-12-10T04:53:04.251Z,980.99
2017-12-10T04:54:04.242Z,980.89
2017-12-10T04:55:04.232Z,980.92
2017-12-10T04:56:04.229Z,980.95
2017-12-10T04:57:04.220Z,981.01
2017-12-10T04:58:04.211Z,981.01
2017-12-10T04:59:04.204Z,981.03
2017-12-10T05:00:04.196Z,981.07
2017-12-10T05:01:04.188Z,980.99
2017-12-10T05:02:04.184Z,980.94
2017-12-10T05:03:04.172Z,980.95
2017-12-10T05:04:04.165Z,980.90
2017-12-10T05:05:04.157Z,980.90
2017-12-10T05:06:04.150Z,980.83
2017-12-10T05:07:04.141Z,980.82
2017-12-10T05:08:04.134Z,980.74
2017-12-10T05:09:04.126Z,980.66
2017-12-10T05:10:04.124Z,980.63
2017-12-10T05:11:04.112Z,980.59
2017-12-10T05:12:04.102Z,980.64
2017-12-10T05:13:04.106Z,980.55
2017-12-10T05:14:04.090Z,980.58
2017-12-10T05:15:04.080Z,980.55
2017-12-10T05:16:04.073Z,980.51
2017-12-10T05:17:04.066Z,980.46
2017-12-10T05:18:04.058Z,980.40
2017-12-10T05:19:04.050Z,980.45
2017-12-10T05:20:04.041Z,980.37
2017-12-10T05:21:04.036Z,980.41
2017-12-10T05:22:04.027Z,980.37
2017-12-10T05:23:04.018Z,980.34
2017-12-10T05:24:04.035Z,980.24
2017-12-10T05:25:04.008Z,980.21
2017-12-10T05:26:03.996Z,980.19
2017-12-10T05:27:03.988Z,980.19
2017-12-10T05:28:03.980Z,980.09
2017-12-10T05:29:03.973Z,980.06
2017-12-10T05:30:03.965Z,980.04
2017-12-10T05:31:03.957Z,980.02
2017-12-10T05:32:03.950Z,980.04
2017-12-10T05:33:03.942Z,980.01
2017-12-10T05:34:03.934Z,979.98
2017-12-10T05:35:03.929Z,979.92
2017-12-10T05:36:03.922Z,979.89
2017-12-10T05:37:03.913Z,979.85
2017-12-10T05:38:03.902Z,979.83
2017-12-10T05:39:03.897Z,979.81
2017-12-10T05:40:03.891Z,979.71
2017-12-10T05:41:03.881Z,979.72
2017-12-10T05:42:03.878Z,979.56
2017-12-10T05:43:03.867Z,979.56
2017-12-10T05:44:03.858Z,979.53
2017-12-10T05:45:03.848Z,979.47
2017-12-10T05:46:03.842Z,979.38
2017-12-10T05:47:03.834Z,979.34
2017-12-10T05:48:03.828Z,979.27
2017-12-10T05:49:03.819Z,979.25
2017-12-10T05:50:03.812Z,979.21
2017-12-10T05:51:03.805Z,979.19
2017-12-10T05:52:03.797Z,979.19
2017-12-10T05:53:03.791Z,979.10
2017-12-10T05:54:03.782Z,979.11
2017-12-10T05:55:03.774Z,979.08
2017-12-10T05:56:03.766Z,979.07
2017-12-10T05:57:03.757Z,978.99
2017-12-10T05:58:03.749Z,979.01
2017-12-10T05:59:03.741Z,978.96
2017-12-10T06:00:03.736Z,978.91
2017-12-10T06:01:03.727Z,978.86
2017-12-10T06:02:03.719Z,978.77
2017-12-10T06:03:03.722Z,978.80
2017-12-10T06:04:03.709Z,978.74
2017-12-10T06:05:03.697Z,978.69
2017-12-10T06:06:03.691Z,978.57
2017-12-10T06:07:03.688Z,978.59
2017-12-10T06:08:03.672Z,978.59
2017-12-10T06:09:03.665Z,978.52
2017-12-10T06:10:03.658Z,978.52
2017-12-10T06:11:03.657Z,978.47
2017-12-10T06:12:03.642Z,978.39
2017-12-10T06:13:03.634Z,978.39
2017-12-10T06:14:03.627Z,978.32
2017-12-10T06:15:03.620Z,978.27
2017-12-10T06:16:03.611Z,978.21
2017-12-10T06:17:03.602Z,978.19
2017-12-10T06:18:03.595Z,978.16
2017-12-10T06:19:03.588Z,978.10
2017-12-10T06:20:03.584Z,977.98
2017-12-10T06:21:03.618Z,977.95
2017-12-10T06:22:03.565Z,977.82
2017-12-10T06:23:03.558Z,977.82
2017-12-10T06:24:03.550Z,977.80
2017-12-10T06:25:03.544Z,977.80
2017-12-10T06:26:03.535Z,977.73
2017-12-10T06:27:03.527Z,977.70
2017-12-10T06:28:03.519Z,977.70
2017-12-10T06:29:03.513Z,977.68
2017-12-10T06:30:03.504Z,977.59
2017-12-10T06:31:03.497Z,977.51
2017-12-10T06:32:03.488Z,977.52
2017-12-10T06:33:03.481Z,977.47
2017-12-10T06:34:03.479Z,977.44
2017-12-10T06:35:03.465Z,977.37
2017-12-10T06:36:03.456Z,977.31
2017-12-10T06:37:03.451Z,977.29
2017-12-10T06:38:03.444Z,977.27
2017-12-10T06:39:03.433Z,977.18
2017-12-10T06:40:03.427Z,977.16
2017-12-10T06:41:03.421Z,977.09
2017-12-10T06:42:03.412Z,977.12
2017-12-10T06:43:03.402Z,977.08
2017-12-10T06:44:03.397Z,977.06
2017-12-10T06:45:03.389Z,977.03
2017-12-10T06:46:03.389Z,977.04
2017-12-10T06:47:03.372Z,976.94
2017-12-10T06:48:03.368Z,976.84
2017-12-10T06:49:03.360Z,976.86
2017-12-10T06:50:03.350Z,976.78
2017-12-10T06:51:03.340Z,976.74
2017-12-10T06:52:03.336Z,976.69
2017-12-10T06:53:03.329Z,976.70
2017-12-10T06:54:03.319Z,976.64
2017-12-10T06:55:03.311Z,976.62
2017-12-10T06:56:03.305Z,976.58
2017-12-10T06:57:03.296Z,976.56
2017-12-10T06:58:03.288Z,976.51
2017-12-10T06:59:03.281Z,976.46
2017-12-10T07:00:03.279Z,976.48
2017-12-10T07:01:03.265Z,976.45
2017-12-10T07:02:03.260Z,976.40
2017-12-10T07:03:03.250Z,976.40
2017-12-10T07:04:03.241Z,976.32
2017-12-10T07:05:03.238Z,976.31
2017-12-10T07:06:03.227Z,976.25
2017-12-10T07:07:03.219Z,976.21
2017-12-10T07:08:03.210Z,976.21
2017-12-10T07:09:03.205Z,976.12
2017-12-10T07:10:03.200Z,976.12
2017-12-10T07:11:03.188Z,976.11
2017-12-10T07:12:03.181Z,976.14
2017-12-10T07:13:03.173Z,976.11
2017-12-10T07:14:03.167Z,976.09
2017-12-10T07:15:03.159Z,976.12
2017-12-10T07:16:03.149Z,976.13
2017-12-10T07:17:03.143Z,976.13
2017-12-10T07:18:03.169Z,976.13
2017-12-10T07:19:03.127Z,976.10
2017-12-10T07:20:03.119Z,976.12
2017-12-10T07:21:03.129Z,976.07
2017-12-10T07:22:03.123Z,976.05
2017-12-10T07:23:03.104Z,976.07
2017-12-10T07:24:03.093Z,976.02
2017-12-10T07:25:03.081Z,976.03
2017-12-10T07:26:03.074Z,976.00
2017-12-10T07:27:03.064Z,975.96
2017-12-10T07:28:03.057Z,975.87
2017-12-10T07:29:03.051Z,975.89
2017-12-10T07:30:03.046Z,975.78
2017-12-10T07:31:03.035Z,975.74
2017-12-10T07:32:03.026Z,975.70
2017-12-10T07:33:03.020Z,975.67
2017-12-10T07:34:03.012Z,975.59
2017-12-10T07:35:03.002Z,975.63
2017-12-10T07:36:02.997Z,975.54
2017-12-10T07:37:02.989Z,975.52
2017-12-10T07:38:02.983Z,975.39
2017-12-10T07:39:02.973Z,975.44
2017-12-10T07:40:02.966Z,975.52
2017-12-10T07:41:02.958Z,975.44
2017-12-10T07:42:02.951Z,975.42
2017-12-10T07:43:02.944Z,975.33
2017-12-10T07:44:02.936Z,975.32
2017-12-10T07:45:02.929Z,975.29
2017-12-10T07:46:02.915Z,975.27
2017-12-10T07:47:02.912Z,975.26
2017-12-10T07:48:02.908Z,975.29
2017-12-10T07:49:02.898Z,975.26
2017-12-10T07:50:02.890Z,975.22
2017-12-10T07:51:02.881Z,975.06
2017-12-10T07:52:02.875Z,974.94
2017-12-10T07:53:02.867Z,974.89
2017-12-10T07:54:02.859Z,974.88
2017-12-10T07:55:02.851Z,974.80
2017-12-10T07:56:02.844Z,974.77
2017-12-10T07:57:02.837Z,974.75
2017-12-10T07:58:02.829Z,974.62
2017-12-10T07:59:02.821Z,974.66
2017-12-10T08:00:02.814Z,974.63
2017-12-10T08:01:02.807Z,974.62
2017-12-10T08:02:02.796Z,974.61
2017-12-10T08:03:02.790Z,974.60
2017-12-10T08:04:02.782Z,974.48
2017-12-10T08:05:02.774Z,974.46
2017-12-10T08:06:02.766Z,974.48
2017-12-10T08:07:02.759Z,974.46
2017-12-10T08:08:02.752Z,974.43
2017-12-10T08:09:02.746Z,974.38
2017-12-10T08:10:02.741Z,974.33
2017-12-10T08:11:02.736Z,974.22
2017-12-10T08:12:02.721Z,974.15
2017-12-10T08:13:02.714Z,974.10
2017-12-10T08:14:02.710Z,974.05
2017-12-10T08:15:02.698Z,974.00
2017-12-10T08:16:02.694Z,973.94
2017-12-10T08:17:02.684Z,973.88
2017-12-10T08:18:02.676Z,973.84
2017-12-10T08:19:02.667Z,973.80
2017-12-10T08:20:02.661Z,973.77
2017-12-10T08:21:02.656Z,973.83
2017-12-10T08:22:02.648Z,973.78
2017-12-10T08:23:02.637Z,973.73
2017-12-10T08:24:02.633Z,973.66
2017-12-10T08:25:02.623Z,973.64
2017-12-10T08:26:02.615Z,973.58
2017-12-10T08:27:02.607Z,973.58
2017-12-10T08:28:02.602Z,973.53
2017-12-10T08:29:02.592Z,973.49
2017-12-10T08:30:02.587Z,973.45
2017-12-10T08:31:02.579Z,973.44
2017-12-10T08:32:02.571Z,973.39
2017-12-10T08:33:02.566Z,973.39
2017-12-10T08:34:02.554Z,973.39
2017-12-10T08:35:02.548Z,973.32
2017-12-10T08:36:02.539Z,973.34
2017-12-10T08:37:02.533Z,973.29
2017-12-10T08:38:02.524Z,973.34
2017-12-10T08:39:02.517Z,973.29
2017-12-10T08:40:02.563Z,973.21
2017-12-10T08:41:02.502Z,973.17
2017-12-10T08:42:02.516Z,973.16
2017-12-10T08:43:02.487Z,973.14
2017-12-10T08:44:02.478Z,973.02
2017-12-10T08:45:02.478Z,972.95
2017-12-10T08:46:02.465Z,972.85
2017-12-10T08:47:02.456Z,972.82
2017-12-10T08:48:02.447Z,972.79
2017-12-10T08:49:02.442Z,972.71
2017-12-10T08:50:02.434Z,972.65
2017-12-10T08:51:02.426Z,972.61
2017-12-10T08:52:02.416Z,972.53
2017-12-10T08:53:02.411Z,972.52
2017-12-10T08:54:02.403Z,972.48
2017-12-10T08:55:02.399Z,972.41
2017-12-10T08:56:02.388Z,972.44
2017-12-10T08:57:02.381Z,972.44
2017-12-10T08:58:02.373Z,972.37
2017-12-10T08:59:02.370Z,972.36
2017-12-10T09:00:02.359Z,972.32
2017-12-10T09:01:02.350Z,972.28
2017-12-10T09:02:02.344Z,972.29
2017-12-10T09:03:02.333Z,972.29
2017-12-10T09:04:02.327Z,972.14
2017-12-10T09:05:02.320Z,972.02
2017-12-10T09:06:02.313Z,971.86
2017-12-10T09:07:02.306Z,971.71
2017-12-10T09:08:02.294Z,971.56
2017-12-10T09:09:02.289Z,971.50
2017-12-10T09:10:02.282Z,971.46
2017-12-10T09:11:02.274Z,971.44
2017-12-10T09:12:02.268Z,971.43
2017-12-10T09:13:02.258Z,971.43
2017-12-10T09:14:02.251Z,971.42
2017-12-10T09:15:02.243Z,971.41
2017-12-10T09:16:02.235Z,971.33
2017-12-10T09:17:02.228Z,971.27
2017-12-10T09:18:02.223Z,971.18
2017-12-10T09:19:02.219Z,971.21
2017-12-10T09:20:02.203Z,971.23
2017-12-10T09:21:02.199Z,971.18
2017-12-10T09:22:02.189Z,971.15
2017-12-10T09:23:02.184Z,971.09
2017-12-10T09:24:02.175Z,971.02
2017-12-10T09:25:02.166Z,970.99
2017-12-10T09:26:02.185Z,971.05
2017-12-10T09:27:02.182Z,971.07
2017-12-10T09:28:02.143Z,970.94
2017-12-10T09:29:02.138Z,970.77
2017-12-10T09:30:02.129Z,970.61
2017-12-10T09:31:02.120Z,970.58
2017-12-10T09:32:02.112Z,970.55
2017-12-10T09:33:02.107Z,970.56
2017-12-10T09:34:02.118Z,970.59
2017-12-10T09:35:02.092Z,970.50
2017-12-10T09:36:02.097Z,970.50
2017-12-10T09:37:02.075Z,970.45
2017-12-10T09:38:02.069Z,970.37
2017-12-10T09:39:02.061Z,970.31
2017-12-10T09:40:02.053Z,970.35
2017-12-10T09:41:02.046Z,970.25
2017-12-10T09:42:02.039Z,970.15
2017-12-10T09:43:02.035Z,970.09
2017-12-10T09:44:02.022Z,970.12
2017-12-10T09:45:02.013Z,969.97
2017-12-10T09:46:02.006Z,970.09
2017-12-10T09:47:01.999Z,970.05
2017-12-10T09:48:01.991Z,970.07
2017-12-10T09:49:01.983Z,970.03
2017-12-10T09:50:01.977Z,969.96
2017-12-10T09:51:01.970Z,969.91
2017-12-10T09:52:01.962Z,969.91
2017-12-10T09:53:01.954Z,969.85
2017-12-10T09:54:01.948Z,969.85
2017-12-10T09:55:01.937Z,969.79
2017-12-10T09:56:01.929Z,969.77
2017-12-10T09:57:01.923Z,969.75
2017-12-10T09:58:01.916Z,969.71
2017-12-10T09:59:01.907Z,969.63
2017-12-10T10:00:01.899Z,969.61
2017-12-10T10:01:01.893Z,969.59
2017-12-10T10:02:01.886Z,969.53
2017-12-10T10:03:01.878Z,969.39
2017-12-10T10:04:01.868Z,969.41
2017-12-10T10:05:01.863Z,969.35
2017-12-10T10:06:01.855Z,969.36
2017-12-10T10:07:01.846Z,969.38
2017-12-10T10:08:01.840Z,969.37
2017-12-10T10:09:01.834Z,969.37
2017-12-10T10:10:01.826Z,969.36
2017-12-10T10:11:01.816Z,969.31
2017-12-10T10:12:01.810Z,969.32
2017-12-10T10:13:01.802Z,969.28
2017-12-10T10:14:01.796Z,969.29
2017-12-10T10:15:01.787Z,969.23
2017-12-10T10:16:01.778Z,969.12
2017-12-10T10:17:01.771Z,969.01
2017-12-10T10:18:01.765Z,969.00
2017-12-10T10:19:01.755Z,968.87
2017-12-10T10:20:01.749Z,968.83
2017-12-10T10:21:01.740Z,968.72
2017-12-10T10:22:01.735Z,968.67
2017-12-10T10:23:01.724Z,968.61
2017-12-10T10:24:01.717Z,968.58
2017-12-10T10:25:01.709Z,968.45
2017-12-10T10:26:01.775Z,968.31
2017-12-10T10:27:01.720Z,968.29
2017-12-10T10:28:01.688Z,968.16
2017-12-10T10:29:01.680Z,967.91
2017-12-10T10:30:01.676Z,967.79
2017-12-10T10:31:01.665Z,967.64
2017-12-10T10:32:01.657Z,967.49
2017-12-10T10:33:01.650Z,967.55
2017-12-10T10:34:01.641Z,967.38
2017-12-10T10:35:01.633Z,967.34
2017-12-10T10:36:01.625Z,967.20
2017-12-10T10:37:01.619Z,967.06
2017-12-10T10:38:01.617Z,967.08
2017-12-10T10:39:01.603Z,967.02
2017-12-10T10:40:01.595Z,966.92
2017-12-10T10:41:01.588Z,966.90
2017-12-10T10:42:01.581Z,966.93
2017-12-10T10:43:01.572Z,966.90
2017-12-10T10:44:01.565Z,966.89
2017-12-10T10:45:01.558Z,966.75
2017-12-10T10:46:01.549Z,966.77
2017-12-10T10:47:01.541Z,966.71
2017-12-10T10:48:01.530Z,966.63
2017-12-10T10:49:01.528Z,966.63
2017-12-10T10:50:01.520Z,966.45
2017-12-10T10:51:01.513Z,966.40
2017-12-10T10:52:01.505Z,966.31
2017-12-10T10:53:01.497Z,966.17
2017-12-10T10:54:01.489Z,966.13
2017-12-10T10:55:01.481Z,966.06
2017-12-10T10:56:01.472Z,966.02
2017-12-10T10:57:01.466Z,965.91
2017-12-10T10:58:01.459Z,965.72
2017-12-10T10:59:01.452Z,965.63
2017-12-10T11:00:01.443Z,965.49
2017-12-10T11:01:01.435Z,965.38
2017-12-10T11:02:01.429Z,965.33
2017-12-10T11:03:01.419Z,965.31
2017-12-10T11:04:01.413Z,965.32
2017-12-10T11:05:01.405Z,965.36
2017-12-10T11:06:01.402Z,965.33
2017-12-10T11:07:01.390Z,965.33
2017-12-10T11:08:01.382Z,965.37
2017-12-10T11:09:01.375Z,965.33
2017-12-10T11:10:01.396Z,965.32
2017-12-10T11:11:01.361Z,965.22
2017-12-10T11:12:01.355Z,965.16
2017-12-10T11:13:01.343Z,965.17
2017-12-10T11:14:01.339Z,965.05
2017-12-10T11:15:01.328Z,964.89
2017-12-10T11:16:01.322Z,964.83
2017-12-10T11:17:01.357Z,964.84
2017-12-10T11:18:01.307Z,964.83
2017-12-10T11:19:01.299Z,964.84
2017-12-10T11:20:01.292Z,964.70
2017-12-10T11:21:01.285Z,964.67
2017-12-10T11:22:01.277Z,964.54
2017-12-10T11:23:01.268Z,964.46
2017-12-10T11:24:01.263Z,964.41
2017-12-10T11:25:01.254Z,964.33
2017-12-10T11:26:01.266Z,964.33
2017-12-10T11:27:01.238Z,964.22
2017-12-10T11:28:01.230Z,964.09
2017-12-10T11:29:01.224Z,963.98
2017-12-10T11:30:01.217Z,964.07
2017-12-10T11:31:01.207Z,963.96
2017-12-10T11:32:01.200Z,963.91
2017-12-10T11:33:01.193Z,963.77
2017-12-10T11:34:01.186Z,963.76
2017-12-10T11:35:01.176Z,963.65
2017-12-10T11:36:01.170Z,963.55
2017-12-10T11:37:01.162Z,963.47
2017-12-10T11:38:01.156Z,963.53
2017-12-10T11:39:01.147Z,963.56
2017-12-10T11:40:01.140Z,963.44
2017-12-10T11:41:01.132Z,963.18
2017-12-10T11:42:01.128Z,963.29
2017-12-10T11:43:01.117Z,963.22
2017-12-10T11:44:01.110Z,963.04
2017-12-10T11:45:01.102Z,962.94
2017-12-10T11:46:01.093Z,963.09
2017-12-10T11:47:01.090Z,963.03
2017-12-10T11:48:01.078Z,963.02
2017-12-10T11:49:01.074Z,962.95
2017-12-10T11:50:01.065Z,962.86
2017-12-10T11:51:01.056Z,962.77
2017-12-10T11:52:01.047Z,962.90
2017-12-10T11:53:01.041Z,962.79
2017-12-10T11:54:01.034Z,962.81
2017-12-10T11:55:01.024Z,962.76
2017-12-10T11:56:01.018Z,962.72
2017-12-10T11:57:01.013Z,962.68
2017-12-10T11:58:01.003Z,962.65
2017-12-10T11:59:00.997Z,962.52
2017-12-10T12:00:00.990Z,962.59
2017-12-10T12:01:00.981Z,962.63
2017-12-10T12:02:00.972Z,962.55
2017-12-10T12:03:00.964Z,962.54
2017-12-10T12:04:00.957Z,962.46
2017-12-10T12:05:00.950Z,962.46
2017-12-10T12:06:00.943Z,962.40
2017-12-10T12:07:00.933Z,962.37
2017-12-10T12:08:00.927Z,962.41
2017-12-10T12:09:00.920Z,962.43
2017-12-10T12:10:00.913Z,962.35
2017-12-10T12:11:00.903Z,962.39
2017-12-10T12:12:00.898Z,962.22
2017-12-10T12:13:00.889Z,962.37
2017-12-10T12:14:00.880Z,962.25
2017-12-10T12:15:00.873Z,962.15
2017-12-10T12:16:00.867Z,962.17
2017-12-10T12:17:00.858Z,962.13
2017-12-10T12:18:00.852Z,962.13
2017-12-10T12:19:00.842Z,961.96
2017-12-10T12:20:00.836Z,961.87
2017-12-10T12:21:00.828Z,962.02
2017-12-10T12:22:00.821Z,962.04
2017-12-10T12:23:00.812Z,961.98
2017-12-10T12:24:00.806Z,962.06
2017-12-10T12:25:00.796Z,962.13
2017-12-10T12:26:00.790Z,962.05
2017-12-10T12:27:00.783Z,962.15
2017-12-10T12:28:00.774Z,962.01